Time,TemperatureF,DewpointF,PressureIn,WindDirection,WindDirectionDegrees,WindSpeedMPH,WindSpeedGustMPH,Humidity,HourlyPrecipIn,Conditions,Clouds,dailyrainin,SoftwareType,DateUTC
2013-02-26 00:02:00,26.4,18.9,30.20,WSW,237,0.0,3.0,73,0.00,,SKC,0.00,VWS V12.07,2013-02-26 08:02:00,
2013-02-26 00:12:00,26.3,18.5,30.21,WSW,237,3.0,4.0,72,0.00,,SKC,0.00,VWS V12.07,2013-02-26 08:12:00,
2013-02-26 00:22:00,25.8,18.4,30.20,WSW,237,1.0,5.0,73,0.00,,SKC,0.00,VWS V12.07,2013-02-26 08:22:00,
2013-02-26 00:32:00,26.0,17.9,30.20,WSW,237,2.0,5.0,71,0.00,,SKC,0.00,VWS V12.07,2013-02-26 08:32:00,
2013-02-26 00:42:00,24.9,17.2,30.19,WSW,237,2.0,5.0,72,0.00,,SKC,0.00,VWS V12.07,2013-02-26 08:42:00,
2013-02-26 00:52:00,24.5,17.1,30.21,SW,218,4.0,7.0,73,0.00,,SKC,0.00,VWS V12.07,2013-02-26 08:52:00,
2013-02-26 01:02:00,24.8,17.1,30.22,SW,215,2.0,3.0,72,0.00,,SKC,0.00,VWS V12.07,2013-02-26 09:02:00,
2013-02-26 01:12:00,25.1,17.0,30.21,SW,215,3.0,5.0,71,0.00,,SKC,0.00,VWS V12.07,2013-02-26 09:12:00,
2013-02-26 01:22:00,24.6,16.5,30.22,SW,215,2.0,5.0,71,0.00,,SKC,0.00,VWS V12.07,2013-02-26 09:22:00,
2013-02-26 01:32:00,23.8,15.8,30.21,SW,215,1.0,3.0,71,0.00,,SKC,0.00,VWS V12.07,2013-02-26 09:32:00,
2013-02-26 01:42:00,23.9,16.2,30.22,SW,215,5.0,6.0,72,0.00,,SKC,0.00,VWS V12.07,2013-02-26 09:42:00,
2013-02-26 01:52:00,23.0,15.0,30.22,SW,216,2.0,7.0,71,0.00,,SKC,0.00,VWS V12.07,2013-02-26 09:52:00,
2013-02-26 02:02:00,22.8,15.5,30.21,SW,216,4.0,6.0,73,0.00,,SKC,0.00,VWS V12.07,2013-02-26 10:02:00,
2013-02-26 02:12:00,22.4,14.8,30.21,SW,219,3.0,7.0,72,0.00,,SKC,0.00,VWS V12.07,2013-02-26 10:12:00,
2013-02-26 02:22:00,22.1,14.8,30.22,SW,223,4.0,7.0,73,0.00,,SKC,0.00,VWS V12.07,2013-02-26 10:22:00,
2013-02-26 02:32:00,22.5,15.5,30.23,SW,223,2.0,5.0,74,0.00,,SKC,0.00,VWS V12.07,2013-02-26 10:32:00,
2013-02-26 02:42:00,22.4,15.4,30.22,SW,223,2.0,6.0,74,0.00,,SKC,0.00,VWS V12.07,2013-02-26 10:42:00,
2013-02-26 02:52:00,22.5,15.5,30.22,WSW,244,8.0,9.0,74,0.00,,SKC,0.00,VWS V12.07,2013-02-26 10:52:00,
2013-02-26 03:02:00,22.9,15.6,30.22,SW,223,5.0,8.0,73,0.00,,SKC,0.00,VWS V12.07,2013-02-26 11:02:00,
2013-02-26 03:12:00,22.7,15.4,30.21,SW,222,7.0,9.0,73,0.00,,SKC,0.00,VWS V12.07,2013-02-26 11:12:00,
2013-02-26 03:22:00,23.1,15.8,30.22,SW,224,5.0,10.0,73,0.00,,SKC,0.00,VWS V12.07,2013-02-26 11:22:00,
2013-02-26 03:32:00,23.0,15.6,30.21,SSW,213,9.0,9.0,73,0.00,,SKC,0.00,VWS V12.07,2013-02-26 11:32:00,
2013-02-26 03:42:00,23.0,16.0,30.20,SW,231,6.0,11.0,74,0.00,,SKC,0.00,VWS V12.07,2013-02-26 11:42:00,
2013-02-26 03:52:00,23.5,16.5,30.22,SW,235,6.0,13.0,74,0.00,,SKC,0.00,VWS V12.07,2013-02-26 11:52:00,
2013-02-26 04:02:00,23.8,16.4,30.21,SW,236,7.0,12.0,73,0.00,,SKC,0.00,VWS V12.07,2013-02-26 12:02:00,
2013-02-26 04:12:00,23.5,16.1,30.21,SW,220,6.0,14.0,73,0.00,,SKC,0.00,VWS V12.07,2013-02-26 12:12:00,
2013-02-26 04:22:00,23.5,16.1,30.22,SSW,204,5.0,14.0,73,0.00,,SKC,0.00,VWS V12.07,2013-02-26 12:22:00,
2013-02-26 04:32:00,23.4,16.4,30.21,SW,220,4.0,10.0,74,0.00,,SKC,0.00,VWS V12.07,2013-02-26 12:32:00,
2013-02-26 04:42:00,23.6,16.2,30.23,SW,220,7.0,15.0,73,0.00,,SKC,0.00,VWS V12.07,2013-02-26 12:42:00,
2013-02-26 04:52:00,23.7,16.6,30.22,SW,215,9.0,16.0,74,0.00,,SKC,0.00,VWS V12.07,2013-02-26 12:52:00,
2013-02-26 05:02:00,23.7,16.3,30.22,SSW,212,12.0,15.0,73,0.00,,SKC,0.00,VWS V12.07,2013-02-26 13:02:00,
2013-02-26 05:12:00,23.8,16.4,30.22,SSW,209,10.0,16.0,73,0.00,,SKC,0.00,VWS V12.07,2013-02-26 13:12:00,
2013-02-26 05:22:00,23.7,16.3,30.21,SW,218,11.0,16.0,73,0.00,,SKC,0.00,VWS V12.07,2013-02-26 13:22:00,
2013-02-26 05:32:00,23.7,16.3,30.22,SW,226,14.0,18.0,73,0.00,,SKC,0.00,VWS V12.07,2013-02-26 13:32:00,
2013-02-26 05:42:00,23.8,16.4,30.21,SSW,207,7.0,19.0,73,0.00,,SKC,0.00,VWS V12.07,2013-02-26 13:42:00,
2013-02-26 05:52:00,23.8,16.4,30.22,SSW,208,12.0,20.0,73,0.00,,SKC,0.00,VWS V12.07,2013-02-26 13:52:00,
2013-02-26 06:02:00,23.8,16.1,30.22,SSW,209,19.0,19.0,72,0.00,,SKC,0.00,VWS V12.07,2013-02-26 14:02:00,
2013-02-26 06:12:00,23.9,16.2,30.22,SW,215,11.0,23.0,72,0.00,,SKC,0.00,VWS V12.07,2013-02-26 14:12:00,
2013-02-26 06:22:00,23.8,16.1,30.23,SW,217,14.0,23.0,72,0.00,,SKC,0.00,VWS V12.07,2013-02-26 14:22:00,
2013-02-26 06:32:00,23.9,16.2,30.22,SSW,202,11.0,17.0,72,0.00,,SKC,0.00,VWS V12.07,2013-02-26 14:32:00,
2013-02-26 06:42:00,23.7,16.0,30.23,SSW,207,7.0,19.0,72,0.00,,SKC,0.00,VWS V12.07,2013-02-26 14:42:00,
2013-02-26 06:52:00,23.6,15.6,30.22,SSW,210,5.0,19.0,71,0.00,,SKC,0.00,VWS V12.07,2013-02-26 14:52:00,
2013-02-26 07:02:00,23.6,15.9,30.22,SSW,213,10.0,16.0,72,0.00,,SKC,0.00,VWS V12.07,2013-02-26 15:02:00,
2013-02-26 07:12:00,23.7,15.7,30.23,SW,219,14.0,19.0,71,0.00,,SKC,0.00,VWS V12.07,2013-02-26 15:12:00,
2013-02-26 07:22:00,23.7,16.0,30.23,SSW,208,6.0,19.0,72,0.00,,SKC,0.00,VWS V12.07,2013-02-26 15:22:00,
2013-02-26 07:32:00,23.9,15.9,30.22,SSW,211,12.0,14.0,71,0.00,,SKC,0.00,VWS V12.07,2013-02-26 15:32:00,
2013-02-26 07:42:00,24.5,16.5,30.22,SSW,207,15.0,21.0,71,0.00,,SKC,0.00,VWS V12.07,2013-02-26 15:42:00,
2013-02-26 07:52:00,24.9,16.5,30.23,SSW,212,16.0,21.0,70,0.00,,SKC,0.00,VWS V12.07,2013-02-26 15:52:00,
2013-02-26 08:02:00,25.5,16.8,30.23,SW,226,7.0,19.0,69,0.00,,SKC,0.00,VWS V12.07,2013-02-26 16:02:00,
2013-02-26 08:12:00,26.1,17.0,30.21,SW,221,9.0,20.0,68,0.00,,SKC,0.00,VWS V12.07,2013-02-26 16:12:00,
2013-02-26 08:22:00,26.6,17.5,30.23,SSW,197,9.0,20.0,68,0.00,,SKC,0.00,VWS V12.07,2013-02-26 16:22:00,
2013-02-26 08:32:00,27.0,17.2,30.23,SW,220,10.0,19.0,66,0.00,,SKC,0.00,VWS V12.07,2013-02-26 16:32:00,
2013-02-26 08:42:00,27.5,17.3,30.22,SSW,196,14.0,20.0,65,0.00,,SKC,0.00,VWS V12.07,2013-02-26 16:42:00,
2013-02-26 08:52:00,27.8,17.2,30.24,SW,222,16.0,23.0,64,0.00,,SKC,0.00,VWS V12.07,2013-02-26 16:52:00,
2013-02-26 09:02:00,28.5,17.5,30.24,SSW,193,20.0,20.0,63,0.00,,SKC,0.00,VWS V12.07,2013-02-26 17:02:00,
2013-02-26 09:12:00,29.2,17.8,30.23,South,191,19.0,23.0,62,0.00,,SKC,0.00,VWS V12.07,2013-02-26 17:12:00,
2013-02-26 09:22:00,29.7,17.1,30.23,SW,225,8.0,24.0,59,0.00,,SKC,0.00,VWS V12.07,2013-02-26 17:22:00,
2013-02-26 09:32:00,30.4,17.4,30.22,South,189,10.0,22.0,58,0.00,,SKC,0.00,VWS V12.07,2013-02-26 17:32:00,
2013-02-26 09:42:00,30.7,17.3,30.24,SSW,199,10.0,23.0,57,0.00,,SKC,0.00,VWS V12.07,2013-02-26 17:42:00,
2013-02-26 09:52:00,30.7,16.5,30.22,SW,222,16.0,23.0,55,0.00,,SKC,0.00,VWS V12.07,2013-02-26 17:52:00,
2013-02-26 10:02:00,31.4,16.7,30.21,SW,220,13.0,16.0,54,0.00,,SKC,0.00,VWS V12.07,2013-02-26 18:02:00,
2013-02-26 10:12:00,31.7,15.2,30.22,SSW,201,9.0,22.0,50,0.00,,SKC,0.00,VWS V12.07,2013-02-26 18:12:00,
2013-02-26 10:22:00,32.5,14.5,30.23,SSW,205,14.0,23.0,47,0.00,,SKC,0.00,VWS V12.07,2013-02-26 18:22:00,
2013-02-26 10:32:00,33.1,13.6,30.22,SSW,192,15.0,25.0,44,0.00,,SKC,0.00,VWS V12.07,2013-02-26 18:32:00,
2013-02-26 10:42:00,33.7,14.1,30.21,SSW,207,19.0,25.0,44,0.00,,SKC,0.00,VWS V12.07,2013-02-26 18:42:00,
2013-02-26 10:52:00,34.7,14.0,30.20,SSW,196,15.0,25.0,42,0.00,,SKC,0.00,VWS V12.07,2013-02-26 18:52:00,
2013-02-26 11:02:00,35.7,14.3,30.20,South,179,8.0,16.0,41,0.00,,SKC,0.00,VWS V12.07,2013-02-26 19:02:00,
2013-02-26 11:12:00,35.7,13.2,30.19,SW,214,8.0,21.0,39,0.00,,SKC,0.00,VWS V12.07,2013-02-26 19:12:00,
2013-02-26 11:22:00,36.3,11.3,30.20,South,191,16.0,21.0,35,0.00,,SKC,0.00,VWS V12.07,2013-02-26 19:22:00,
2013-02-26 11:32:00,36.6,10.9,30.19,SW,217,15.0,18.0,34,0.00,,SKC,0.00,VWS V12.07,2013-02-26 19:32:00,
2013-02-26 11:42:00,36.9,10.5,30.20,SW,224,17.0,18.0,33,0.00,,SKC,0.00,VWS V12.07,2013-02-26 19:42:00,
2013-02-26 11:52:00,37.7,11.2,30.20,SW,223,14.0,18.0,33,0.00,,SKC,0.00,VWS V12.07,2013-02-26 19:52:00,
2013-02-26 12:02:00,38.3,9.6,30.20,SSW,206,8.0,12.0,30,0.00,,SKC,0.00,VWS V12.07,2013-02-26 20:02:00,
2013-02-26 12:12:00,38.5,10.5,30.19,SW,219,7.0,18.0,31,0.00,,SKC,0.00,VWS V12.07,2013-02-26 20:12:00,
2013-02-26 12:22:00,39.2,10.4,30.17,SW,224,10.0,19.0,30,0.00,,SKC,0.00,VWS V12.07,2013-02-26 20:22:00,
2013-02-26 12:32:00,39.1,11.0,30.18,WSW,237,13.0,14.0,31,0.00,,SKC,0.00,VWS V12.07,2013-02-26 20:32:00,
2013-02-26 12:42:00,39.7,10.8,30.18,SSW,192,9.0,15.0,30,0.00,,SKC,0.00,VWS V12.07,2013-02-26 20:42:00,
2013-02-26 12:52:00,40.5,10.8,30.18,SSW,203,10.0,16.0,29,0.00,,SKC,0.00,VWS V12.07,2013-02-26 20:52:00,
2013-02-26 13:02:00,40.9,10.3,30.17,South,190,11.0,16.0,28,0.00,,SKC,0.00,VWS V12.07,2013-02-26 21:02:00,
2013-02-26 13:12:00,41.1,10.5,30.17,SSW,209,10.0,18.0,28,0.00,,SKC,0.00,VWS V12.07,2013-02-26 21:12:00,
2013-02-26 13:22:00,41.1,11.3,30.17,South,186,10.0,18.0,29,0.00,,SKC,0.00,VWS V12.07,2013-02-26 21:22:00,
2013-02-26 13:32:00,41.2,12.9,30.17,SW,219,4.0,11.0,31,0.00,,SKC,0.00,VWS V12.07,2013-02-26 21:32:00,
2013-02-26 13:42:00,42.1,12.1,30.17,SSW,207,14.0,18.0,29,0.00,,SKC,0.00,VWS V12.07,2013-02-26 21:42:00,
2013-02-26 13:52:00,42.4,12.4,30.17,SW,218,6.0,18.0,29,0.00,,SKC,0.00,VWS V12.07,2013-02-26 21:52:00,
2013-02-26 14:02:00,43.3,12.4,30.17,South,187,13.0,16.0,28,0.00,,SKC,0.00,VWS V12.07,2013-02-26 22:02:00,
2013-02-26 14:12:00,43.8,12.0,30.17,South,181,4.0,16.0,27,0.00,,SKC,0.00,VWS V12.07,2013-02-26 22:12:00,
2013-02-26 14:22:00,44.0,12.2,30.15,South,187,5.0,19.0,27,0.00,,SKC,0.00,VWS V12.07,2013-02-26 22:22:00,
2013-02-26 14:32:00,44.3,12.4,30.16,SSW,192,7.0,14.0,27,0.00,,SKC,0.00,VWS V12.07,2013-02-26 22:32:00,
2013-02-26 14:42:00,44.7,12.8,30.16,South,187,7.0,16.0,27,0.00,,SKC,0.00,VWS V12.07,2013-02-26 22:42:00,
2013-02-26 14:52:00,44.4,12.5,30.17,South,188,7.0,19.0,27,0.00,,SKC,0.00,VWS V12.07,2013-02-26 22:52:00,
2013-02-26 15:02:00,44.7,12.8,30.15,South,169,8.0,17.0,27,0.00,,SKC,0.00,VWS V12.07,2013-02-26 23:02:00,
2013-02-26 15:12:00,44.9,13.0,30.16,SSW,195,9.0,17.0,27,0.00,,SKC,0.00,VWS V12.07,2013-02-26 23:12:00,
2013-02-26 15:22:00,44.7,13.6,30.15,South,175,13.0,20.0,28,0.00,,SKC,0.00,VWS V12.07,2013-02-26 23:22:00,
2013-02-26 15:32:00,45.3,14.1,30.15,South,186,11.0,16.0,28,0.00,,SKC,0.00,VWS V12.07,2013-02-26 23:32:00,
2013-02-26 15:42:00,45.3,13.3,30.14,South,175,10.0,18.0,27,0.00,,SKC,0.00,VWS V12.07,2013-02-26 23:42:00,
2013-02-26 15:52:00,45.0,13.1,30.15,SSW,212,9.0,21.0,27,0.00,,SKC,0.00,VWS V12.07,2013-02-26 23:52:00,
2013-02-26 16:02:00,45.1,14.8,30.13,SSW,193,7.0,14.0,29,0.00,,SKC,0.00,VWS V12.07,2013-02-27 00:02:00,
2013-02-26 16:12:00,45.0,14.7,30.14,South,189,9.0,14.0,29,0.00,,SKC,0.00,VWS V12.07,2013-02-27 00:12:00,
2013-02-26 16:22:00,44.7,14.4,30.16,SSW,202,6.0,14.0,29,0.00,,SKC,0.00,VWS V12.07,2013-02-27 00:22:00,
2013-02-26 16:32:00,44.7,15.2,30.15,SSW,209,5.0,8.0,30,0.00,,SKC,0.00,VWS V12.07,2013-02-27 00:32:00,
2013-02-26 16:42:00,44.7,15.9,30.16,SSW,207,5.0,8.0,31,0.00,,SKC,0.00,VWS V12.07,2013-02-27 00:42:00,
2013-02-26 16:52:00,44.5,16.5,30.15,SSW,210,6.0,9.0,32,0.00,,SKC,0.00,VWS V12.07,2013-02-27 00:52:00,
2013-02-26 17:02:00,44.9,16.8,30.15,SSW,210,2.0,6.0,32,0.00,,SKC,0.00,VWS V12.07,2013-02-27 01:02:00,
2013-02-26 17:12:00,45.2,17.1,30.15,SSW,210,3.0,6.0,32,0.00,,SKC,0.00,VWS V12.07,2013-02-27 01:12:00,
2013-02-26 17:22:00,44.1,12.3,30.16,NW,315,6.0,10.0,27,0.00,,SKC,0.00,VWS V12.07,2013-02-27 01:22:00,
2013-02-26 17:32:00,43.6,12.7,30.14,NW,315,2.0,5.0,28,0.00,,SKC,0.00,VWS V12.07,2013-02-27 01:32:00,
2013-02-26 17:42:00,43.4,13.3,30.15,NW,315,0.0,5.0,29,0.00,,SKC,0.00,VWS V12.07,2013-02-27 01:42:00,
2013-02-26 17:52:00,43.0,13.7,30.15,NW,315,1.0,5.0,30,0.00,,SKC,0.00,VWS V12.07,2013-02-27 01:52:00,
2013-02-26 18:02:00,43.0,13.7,30.16,NW,315,2.0,3.0,30,0.00,,SKC,0.00,VWS V12.07,2013-02-27 02:02:00,
2013-02-26 18:12:00,43.0,15.2,30.14,NW,310,2.0,5.0,32,0.00,,SKC,0.00,VWS V12.07,2013-02-27 02:12:00,
2013-02-26 18:22:00,42.2,15.2,30.15,WNW,284,4.0,7.0,33,0.00,,SKC,0.00,VWS V12.07,2013-02-27 02:22:00,
2013-02-26 18:32:00,40.7,14.5,30.15,WNW,284,2.0,7.0,34,0.00,,SKC,0.00,VWS V12.07,2013-02-27 02:32:00,
2013-02-26 18:42:00,40.7,16.5,30.15,WNW,284,3.0,7.0,37,0.00,,SKC,0.00,VWS V12.07,2013-02-27 02:42:00,
2013-02-26 18:52:00,41.2,16.9,30.15,West,272,7.0,7.0,37,0.00,,SKC,0.00,VWS V12.07,2013-02-27 02:52:00,
2013-02-26 19:02:00,41.5,19.0,30.15,West,261,4.0,5.0,40,0.00,,SKC,0.00,VWS V12.07,2013-02-27 03:02:00,
2013-02-26 19:12:00,42.7,13.4,30.17,SW,216,5.0,16.0,30,0.00,,SKC,0.00,VWS V12.07,2013-02-27 03:12:00,
2013-02-26 19:22:00,42.1,15.1,30.16,SW,217,3.0,16.0,33,0.00,,SKC,0.00,VWS V12.07,2013-02-27 03:22:00,
2013-02-26 19:32:00,41.4,15.8,30.15,WSW,245,7.0,12.0,35,0.00,,SKC,0.00,VWS V12.07,2013-02-27 03:32:00,
2013-02-26 19:42:00,40.5,17.5,30.15,SSW,207,8.0,12.0,39,0.00,,SKC,0.00,VWS V12.07,2013-02-27 03:42:00,
2013-02-26 19:52:00,39.7,18.0,30.15,SSW,196,7.0,12.0,41,0.00,,SKC,0.00,VWS V12.07,2013-02-27 03:52:00,
2013-02-26 20:02:00,39.5,17.8,30.15,South,191,7.0,12.0,41,0.00,,SKC,0.00,VWS V12.07,2013-02-27 04:02:00,
2013-02-26 20:12:00,39.5,17.8,30.16,SSW,207,7.0,13.0,41,0.00,,SKC,0.00,VWS V12.07,2013-02-27 04:12:00,
2013-02-26 20:22:00,38.8,17.7,30.16,SW,222,3.0,13.0,42,0.00,,SKC,0.00,VWS V12.07,2013-02-27 04:22:00,
2013-02-26 20:32:00,37.8,19.4,30.16,SW,226,3.0,7.0,47,0.00,,SKC,0.00,VWS V12.07,2013-02-27 04:32:00,
2013-02-26 20:42:00,37.0,19.1,30.17,SW,232,4.0,7.0,48,0.00,,SKC,0.00,VWS V12.07,2013-02-27 04:42:00,
2013-02-26 20:52:00,37.2,18.3,30.16,SW,234,5.0,7.0,46,0.00,,SKC,0.00,VWS V12.07,2013-02-27 04:52:00,
2013-02-26 21:02:00,37.3,17.4,30.17,WSW,237,2.0,7.0,44,0.00,,SKC,0.00,VWS V12.07,2013-02-27 05:02:00,
2013-02-26 21:12:00,37.1,17.2,30.18,WSW,237,4.0,7.0,44,0.00,,SKC,0.00,VWS V12.07,2013-02-27 05:12:00,
2013-02-26 21:22:00,37.7,17.8,30.18,WSW,237,4.0,7.0,44,0.00,,SKC,0.00,VWS V12.07,2013-02-27 05:22:00,
2013-02-26 21:32:00,37.0,16.6,30.17,South,178,5.0,9.0,43,0.00,,SKC,0.00,VWS V12.07,2013-02-27 05:32:00,
2013-02-26 21:42:00,36.5,16.1,30.17,South,187,9.0,12.0,43,0.00,,SKC,0.00,VWS V12.07,2013-02-27 05:42:00,
2013-02-26 21:52:00,36.4,16.0,30.16,SSW,196,10.0,14.0,43,0.00,,SKC,0.00,VWS V12.07,2013-02-27 05:52:00,
2013-02-26 22:02:00,36.3,16.0,30.17,SSW,193,8.0,16.0,43,0.00,,SKC,0.00,VWS V12.07,2013-02-27 06:02:00,
2013-02-26 22:12:00,36.3,16.0,30.17,South,190,7.0,16.0,43,0.00,,SKC,0.00,VWS V12.07,2013-02-27 06:12:00,
2013-02-26 22:22:00,36.3,16.0,30.16,South,190,9.0,16.0,43,0.00,,SKC,0.00,VWS V12.07,2013-02-27 06:22:00,
2013-02-26 22:32:00,36.3,16.0,30.16,South,190,3.0,9.0,43,0.00,,SKC,0.00,VWS V12.07,2013-02-27 06:32:00,
2013-02-26 22:42:00,36.1,15.8,30.17,South,191,3.0,9.0,43,0.00,,SKC,0.00,VWS V12.07,2013-02-27 06:42:00,
2013-02-26 22:52:00,35.7,15.4,30.17,SSW,192,2.0,9.0,43,0.00,,SKC,0.00,VWS V12.07,2013-02-27 06:52:00,
2013-02-26 23:03:00,35.4,14.6,30.18,SSW,209,2.0,5.0,42,0.00,,SKC,0.00,VWS V12.07,2013-02-27 07:03:00,
2013-02-26 23:12:00,35.4,14.1,30.17,SW,226,5.0,11.0,41,0.00,,SKC,0.00,VWS V12.07,2013-02-27 07:12:00,
2013-02-26 23:22:00,34.5,14.3,30.17,WSW,240,7.0,11.0,43,0.00,,SKC,0.00,VWS V12.07,2013-02-27 07:22:00,
2013-02-26 23:32:00,34.5,14.3,30.16,WSW,250,11.0,11.0,43,0.00,,SKC,0.00,VWS V12.07,2013-02-27 07:32:00,
2013-02-26 23:42:00,34.8,14.1,30.16,WSW,254,5.0,14.0,42,0.00,,SKC,0.00,VWS V12.07,2013-02-27 07:42:00,
2013-02-26 23:52:00,35.0,14.2,30.17,SW,227,9.0,18.0,42,0.00,,SKC,0.00,VWS V12.07,2013-02-27 07:52:00,